weather.gov     
National Weather Service

Terminal Aerodrome Forecast
NWS Homepage
This page is being discontinued on March 12, 2014.
The same data is available at this site. Please update your bookmarks.
Thank you, and we apologize for the inconvenience.
Please send an email to SR-SRH.Webmaster@noaa.gov with any concerns.


Current Version
Previous Version:    01  02  03  04  05  06  07  08  09  10  11  12  13  14  15  16  17  18  19  20  21  22  23  24  25  26  27  28  29  30  
   31  32  33  34  35  36  37  
[Printable]
871
FTUS43 KSGF 240500
TAFJLN
TAF
KJLN 240520Z 2406/2506 VRB04KT 2SM BR FEW003 SCT015
      TEMPO 2406/2410 1/2SM FG
     FM241000 VRB03KT 1SM BR FEW003 SCT012
      TEMPO 2410/2412 1/2SM FG
     FM241400 22005KT 3SM BR SCT010
     FM241600 22007KT P6SM SKC=


U.S. Dept. of Commerce
NOAA National Weather Service
1325 East West Highway
Silver Spring, MD 20910
E-mail: w-nws.webmaster@noaa.gov
Page last modified: May 16, 2007
NATIONAL WEATHER SERVICE: for Safety, for Work, for Fun - FOR LIFE